sensor_id;sensor_type;location;lat;lon;timestamp;temperature;humidity
78438;SHT31;67736;51.978;5.656;2024-02-16T00:02:04;14.1;67.4
78438;SHT31;67736;51.978;5.656;2024-02-16T00:04:36;14.1;67.5
78438;SHT31;67736;51.978;5.656;2024-02-16T00:07:05;14.0;67.5
78438;SHT31;67736;51.978;5.656;2024-02-16T00:09:35;14.0;67.5
78438;SHT31;67736;51.978;5.656;2024-02-16T00:12:04;14.0;67.5
78438;SHT31;67736;51.978;5.656;2024-02-16T00:14:34;14.0;67.4
78438;SHT31;67736;51.978;5.656;2024-02-16T00:17:04;14.0;67.4
78438;SHT31;67736;51.978;5.656;2024-02-16T00:19:34;14.0;67.5
78438;SHT31;67736;51.978;5.656;2024-02-16T00:22:04;14.0;67.4
78438;SHT31;67736;51.978;5.656;2024-02-16T00:24:35;13.9;67.4
78438;SHT31;67736;51.978;5.656;2024-02-16T00:27:05;13.9;67.6
78438;SHT31;67736;51.978;5.656;2024-02-16T00:29:34;13.9;67.6
78438;SHT31;67736;51.978;5.656;2024-02-16T00:32:05;13.9;67.6
78438;SHT31;67736;51.978;5.656;2024-02-16T00:34:36;13.9;67.6
78438;SHT31;67736;51.978;5.656;2024-02-16T00:37:07;13.9;67.5
78438;SHT31;67736;51.978;5.656;2024-02-16T00:39:39;13.9;67.6
78438;SHT31;67736;51.978;5.656;2024-02-16T00:42:09;13.8;67.6
78438;SHT31;67736;51.978;5.656;2024-02-16T00:44:39;13.8;67.7
78438;SHT31;67736;51.978;5.656;2024-02-16T00:47:08;13.8;67.6
78438;SHT31;67736;51.978;5.656;2024-02-16T00:49:39;13.8;67.6
78438;SHT31;67736;51.978;5.656;2024-02-16T00:52:08;13.8;67.6
78438;SHT31;67736;51.978;5.656;2024-02-16T00:54:40;13.8;67.7
78438;SHT31;67736;51.978;5.656;2024-02-16T00:57:10;13.7;67.7
78438;SHT31;67736;51.978;5.656;2024-02-16T00:59:41;13.7;67.8
78438;SHT31;67736;51.978;5.656;2024-02-16T01:02:11;13.7;67.7
78438;SHT31;67736;51.978;5.656;2024-02-16T01:04:43;13.7;67.8
78438;SHT31;67736;51.978;5.656;2024-02-16T01:07:16;13.7;67.8
78438;SHT31;67736;51.978;5.656;2024-02-16T01:09:45;13.7;67.8
78438;SHT31;67736;51.978;5.656;2024-02-16T01:12:16;13.7;67.9
78438;SHT31;67736;51.978;5.656;2024-02-16T01:14:45;13.6;67.9
78438;SHT31;67736;51.978;5.656;2024-02-16T01:17:14;13.6;67.8
78438;SHT31;67736;51.978;5.656;2024-02-16T01:19:44;13.6;67.9
78438;SHT31;67736;51.978;5.656;2024-02-16T01:22:14;13.6;67.8
78438;SHT31;67736;51.978;5.656;2024-02-16T01:24:44;13.6;67.9
78438;SHT31;67736;51.978;5.656;2024-02-16T01:27:13;13.6;68.0
78438;SHT31;67736;51.978;5.656;2024-02-16T01:29:43;13.5;68.0
78438;SHT31;67736;51.978;5.656;2024-02-16T01:32:13;13.5;68.0
78438;SHT31;67736;51.978;5.656;2024-02-16T01:34:43;13.5;68.0
78438;SHT31;67736;51.978;5.656;2024-02-16T01:37:14;13.5;68.0
78438;SHT31;67736;51.978;5.656;2024-02-16T01:39:44;13.5;68.0
78438;SHT31;67736;51.978;5.656;2024-02-16T01:42:13;13.5;67.9
78438;SHT31;67736;51.978;5.656;2024-02-16T01:44:43;13.5;67.9
78438;SHT31;67736;51.978;5.656;2024-02-16T01:47:13;13.5;68.0
78438;SHT31;67736;51.978;5.656;2024-02-16T01:49:42;13.5;68.0
78438;SHT31;67736;51.978;5.656;2024-02-16T01:52:12;13.5;68.0
78438;SHT31;67736;51.978;5.656;2024-02-16T01:54:42;13.4;68.0
78438;SHT31;67736;51.978;5.656;2024-02-16T01:57:12;13.4;67.9
78438;SHT31;67736;51.978;5.656;2024-02-16T01:59:43;13.4;68.0
78438;SHT31;67736;51.978;5.656;2024-02-16T02:02:13;13.4;68.1
78438;SHT31;67736;51.978;5.656;2024-02-16T02:04:42;13.4;68.0
78438;SHT31;67736;51.978;5.656;2024-02-16T02:07:13;13.4;68.0
78438;SHT31;67736;51.978;5.656;2024-02-16T02:09:44;13.4;68.0
78438;SHT31;67736;51.978;5.656;2024-02-16T02:12:13;13.4;68.0
78438;SHT31;67736;51.978;5.656;2024-02-16T02:14:43;13.4;68.1
78438;SHT31;67736;51.978;5.656;2024-02-16T02:17:14;13.3;68.1
78438;SHT31;67736;51.978;5.656;2024-02-16T02:19:44;13.3;68.1
78438;SHT31;67736;51.978;5.656;2024-02-16T02:22:15;13.3;68.2
78438;SHT31;67736;51.978;5.656;2024-02-16T02:24:46;13.3;68.2
78438;SHT31;67736;51.978;5.656;2024-02-16T02:27:16;13.3;68.3
78438;SHT31;67736;51.978;5.656;2024-02-16T02:29:46;13.3;68.4
78438;SHT31;67736;51.978;5.656;2024-02-16T02:32:15;13.3;68.4
78438;SHT31;67736;51.978;5.656;2024-02-16T02:34:45;13.3;68.4
78438;SHT31;67736;51.978;5.656;2024-02-16T02:37:14;13.3;68.4
78438;SHT31;67736;51.978;5.656;2024-02-16T02:39:44;13.3;68.4
78438;SHT31;67736;51.978;5.656;2024-02-16T02:42:13;13.3;68.3
78438;SHT31;67736;51.978;5.656;2024-02-16T02:44:43;13.3;68.3
78438;SHT31;67736;51.978;5.656;2024-02-16T02:47:17;13.3;68.2
78438;SHT31;67736;51.978;5.656;2024-02-16T02:49:49;13.3;68.2
78438;SHT31;67736;51.978;5.656;2024-02-16T02:52:19;13.3;68.2
78438;SHT31;67736;51.978;5.656;2024-02-16T02:54:48;13.3;68.3
78438;SHT31;67736;51.978;5.656;2024-02-16T02:57:18;13.3;68.2
78438;SHT31;67736;51.978;5.656;2024-02-16T02:59:47;13.3;68.2
78438;SHT31;67736;51.978;5.656;2024-02-16T03:02:17;13.3;68.1
78438;SHT31;67736;51.978;5.656;2024-02-16T03:04:46;13.3;68.1
78438;SHT31;67736;51.978;5.656;2024-02-16T03:07:16;13.3;68.1
78438;SHT31;67736;51.978;5.656;2024-02-16T03:09:45;13.3;68.1
78438;SHT31;67736;51.978;5.656;2024-02-16T03:12:15;13.3;68.0
78438;SHT31;67736;51.978;5.656;2024-02-16T03:14:44;13.3;67.9
78438;SHT31;67736;51.978;5.656;2024-02-16T03:17:14;13.4;67.9
78438;SHT31;67736;51.978;5.656;2024-02-16T03:19:43;13.4;67.9
78438;SHT31;67736;51.978;5.656;2024-02-16T03:22:13;13.4;67.9
78438;SHT31;67736;51.978;5.656;2024-02-16T03:24:42;13.4;67.8
78438;SHT31;67736;51.978;5.656;2024-02-16T03:27:12;13.4;67.9
78438;SHT31;67736;51.978;5.656;2024-02-16T03:29:42;13.4;67.7
78438;SHT31;67736;51.978;5.656;2024-02-16T03:32:14;13.4;67.7
78438;SHT31;67736;51.978;5.656;2024-02-16T03:34:44;13.4;67.6
78438;SHT31;67736;51.978;5.656;2024-02-16T03:37:13;13.4;67.5
78438;SHT31;67736;51.978;5.656;2024-02-16T03:39:43;13.4;67.5
78438;SHT31;67736;51.978;5.656;2024-02-16T03:42:13;13.4;67.5
78438;SHT31;67736;51.978;5.656;2024-02-16T03:44:43;13.4;67.5
78438;SHT31;67736;51.978;5.656;2024-02-16T03:47:13;13.4;67.5
78438;SHT31;67736;51.978;5.656;2024-02-16T03:49:43;13.4;67.3
78438;SHT31;67736;51.978;5.656;2024-02-16T03:52:12;13.4;67.3
78438;SHT31;67736;51.978;5.656;2024-02-16T03:54:42;13.4;67.3
78438;SHT31;67736;51.978;5.656;2024-02-16T03:57:15;13.4;67.2
78438;SHT31;67736;51.978;5.656;2024-02-16T03:59:46;13.4;67.2
78438;SHT31;67736;51.978;5.656;2024-02-16T04:02:17;13.4;67.1
78438;SHT31;67736;51.978;5.656;2024-02-16T04:04:49;13.4;67.2
78438;SHT31;67736;51.978;5.656;2024-02-16T04:07:20;13.4;67.2
78438;SHT31;67736;51.978;5.656;2024-02-16T04:09:50;13.3;67.3
78438;SHT31;67736;51.978;5.656;2024-02-16T04:12:19;13.3;67.3
78438;SHT31;67736;51.978;5.656;2024-02-16T04:14:49;13.3;67.3
78438;SHT31;67736;51.978;5.656;2024-02-16T04:17:18;13.3;67.4
78438;SHT31;67736;51.978;5.656;2024-02-16T04:19:47;13.3;67.4
78438;SHT31;67736;51.978;5.656;2024-02-16T04:22:17;13.3;67.5
78438;SHT31;67736;51.978;5.656;2024-02-16T04:24:47;13.3;67.5
78438;SHT31;67736;51.978;5.656;2024-02-16T04:27:16;13.2;67.6
78438;SHT31;67736;51.978;5.656;2024-02-16T04:29:46;13.2;67.5
78438;SHT31;67736;51.978;5.656;2024-02-16T04:32:15;13.2;67.5
78438;SHT31;67736;51.978;5.656;2024-02-16T04:34:46;13.2;67.4
78438;SHT31;67736;51.978;5.656;2024-02-16T04:37:16;13.2;67.6
78438;SHT31;67736;51.978;5.656;2024-02-16T04:39:46;13.2;67.5
78438;SHT31;67736;51.978;5.656;2024-02-16T04:42:16;13.3;67.4
78438;SHT31;67736;51.978;5.656;2024-02-16T04:44:46;13.3;67.5
78438;SHT31;67736;51.978;5.656;2024-02-16T04:47:16;13.3;67.4
78438;SHT31;67736;51.978;5.656;2024-02-16T04:49:45;13.3;67.4
78438;SHT31;67736;51.978;5.656;2024-02-16T04:52:15;13.3;67.4
78438;SHT31;67736;51.978;5.656;2024-02-16T04:54:44;13.3;67.3
78438;SHT31;67736;51.978;5.656;2024-02-16T04:57:14;13.4;67.3
78438;SHT31;67736;51.978;5.656;2024-02-16T04:59:43;13.4;67.2
78438;SHT31;67736;51.978;5.656;2024-02-16T05:02:12;13.4;67.2
78438;SHT31;67736;51.978;5.656;2024-02-16T05:04:42;13.4;67.2
78438;SHT31;67736;51.978;5.656;2024-02-16T05:07:12;13.4;67.1
78438;SHT31;67736;51.978;5.656;2024-02-16T05:09:43;13.5;67.1
78438;SHT31;67736;51.978;5.656;2024-02-16T05:12:12;13.5;67.0
78438;SHT31;67736;51.978;5.656;2024-02-16T05:14:42;13.5;67.0
78438;SHT31;67736;51.978;5.656;2024-02-16T05:17:12;13.5;67.0
78438;SHT31;67736;51.978;5.656;2024-02-16T05:19:41;13.6;66.9
78438;SHT31;67736;51.978;5.656;2024-02-16T05:22:11;13.6;66.8
78438;SHT31;67736;51.978;5.656;2024-02-16T05:24:41;13.6;66.7
78438;SHT31;67736;51.978;5.656;2024-02-16T05:27:10;13.6;66.8
78438;SHT31;67736;51.978;5.656;2024-02-16T05:29:41;13.7;66.7
78438;SHT31;67736;51.978;5.656;2024-02-16T05:32:11;13.7;66.7
78438;SHT31;67736;51.978;5.656;2024-02-16T05:34:41;13.7;66.8
78438;SHT31;67736;51.978;5.656;2024-02-16T05:37:11;13.7;66.8
78438;SHT31;67736;51.978;5.656;2024-02-16T05:39:42;13.7;66.6
78438;SHT31;67736;51.978;5.656;2024-02-16T05:42:17;13.8;66.6
78438;SHT31;67736;51.978;5.656;2024-02-16T05:44:47;13.8;66.6
78438;SHT31;67736;51.978;5.656;2024-02-16T05:47:16;13.8;66.6
78438;SHT31;67736;51.978;5.656;2024-02-16T05:49:47;13.8;66.7
78438;SHT31;67736;51.978;5.656;2024-02-16T05:52:16;13.8;66.6
78438;SHT31;67736;51.978;5.656;2024-02-16T05:54:49;13.8;66.6
78438;SHT31;67736;51.978;5.656;2024-02-16T05:57:19;13.8;66.6
78438;SHT31;67736;51.978;5.656;2024-02-16T05:59:48;13.8;66.6
78438;SHT31;67736;51.978;5.656;2024-02-16T06:02:19;13.8;66.6
78438;SHT31;67736;51.978;5.656;2024-02-16T06:04:53;13.9;66.6
78438;SHT31;67736;51.978;5.656;2024-02-16T06:07:22;13.9;66.6
78438;SHT31;67736;51.978;5.656;2024-02-16T06:09:52;13.9;66.5
78438;SHT31;67736;51.978;5.656;2024-02-16T06:12:22;13.9;66.6
78438;SHT31;67736;51.978;5.656;2024-02-16T06:14:51;13.9;66.5
78438;SHT31;67736;51.978;5.656;2024-02-16T06:17:25;13.9;66.7
78438;SHT31;67736;51.978;5.656;2024-02-16T06:19:57;13.9;66.7
78438;SHT31;67736;51.978;5.656;2024-02-16T06:22:26;13.9;66.7
78438;SHT31;67736;51.978;5.656;2024-02-16T06:24:56;13.9;66.7
78438;SHT31;67736;51.978;5.656;2024-02-16T06:27:27;13.9;66.8
78438;SHT31;67736;51.978;5.656;2024-02-16T06:29:56;13.9;66.8
78438;SHT31;67736;51.978;5.656;2024-02-16T06:32:26;13.9;66.8
78438;SHT31;67736;51.978;5.656;2024-02-16T06:34:58;13.9;66.8
78438;SHT31;67736;51.978;5.656;2024-02-16T06:37:28;13.9;66.9
78438;SHT31;67736;51.978;5.656;2024-02-16T06:39:59;13.9;67.0
78438;SHT31;67736;51.978;5.656;2024-02-16T06:42:30;13.9;67.0
78438;SHT31;67736;51.978;5.656;2024-02-16T06:45:01;13.9;67.1
78438;SHT31;67736;51.978;5.656;2024-02-16T06:47:32;14.0;67.1
78438;SHT31;67736;51.978;5.656;2024-02-16T06:50:02;14.0;67.1
78438;SHT31;67736;51.978;5.656;2024-02-16T06:52:31;14.0;67.1
78438;SHT31;67736;51.978;5.656;2024-02-16T06:55:01;14.0;67.1
78438;SHT31;67736;51.978;5.656;2024-02-16T06:57:32;14.0;67.1
78438;SHT31;67736;51.978;5.656;2024-02-16T07:00:02;14.0;67.1
78438;SHT31;67736;51.978;5.656;2024-02-16T07:02:32;14.0;67.2
78438;SHT31;67736;51.978;5.656;2024-02-16T07:05:02;14.0;67.1
78438;SHT31;67736;51.978;5.656;2024-02-16T07:07:32;14.0;67.2
78438;SHT31;67736;51.978;5.656;2024-02-16T07:10:03;14.0;67.2
78438;SHT31;67736;51.978;5.656;2024-02-16T07:12:33;14.0;67.3
78438;SHT31;67736;51.978;5.656;2024-02-16T07:15:03;14.0;67.3
78438;SHT31;67736;51.978;5.656;2024-02-16T07:17:33;14.0;67.4
78438;SHT31;67736;51.978;5.656;2024-02-16T07:20:05;14.0;67.6
78438;SHT31;67736;51.978;5.656;2024-02-16T07:22:34;14.1;67.6
78438;SHT31;67736;51.978;5.656;2024-02-16T07:25:04;14.1;67.7
78438;SHT31;67736;51.978;5.656;2024-02-16T07:27:35;14.1;67.7
78438;SHT31;67736;51.978;5.656;2024-02-16T07:30:05;14.1;67.7
78438;SHT31;67736;51.978;5.656;2024-02-16T07:32:38;14.1;67.8
78438;SHT31;67736;51.978;5.656;2024-02-16T07:35:08;14.1;67.8
78438;SHT31;67736;51.978;5.656;2024-02-16T07:37:37;14.1;67.9
78438;SHT31;67736;51.978;5.656;2024-02-16T07:40:09;14.1;68.0
78438;SHT31;67736;51.978;5.656;2024-02-16T07:42:40;14.1;68.0
78438;SHT31;67736;51.978;5.656;2024-02-16T07:45:10;14.1;68.1
78438;SHT31;67736;51.978;5.656;2024-02-16T07:47:41;14.1;68.1
78438;SHT31;67736;51.978;5.656;2024-02-16T07:50:11;14.2;68.2
78438;SHT31;67736;51.978;5.656;2024-02-16T07:52:41;14.2;68.1
78438;SHT31;67736;51.978;5.656;2024-02-16T07:55:11;14.2;68.2
78438;SHT31;67736;51.978;5.656;2024-02-16T07:57:41;14.2;68.2
78438;SHT31;67736;51.978;5.656;2024-02-16T08:00:11;14.2;68.3
78438;SHT31;67736;51.978;5.656;2024-02-16T08:02:43;14.3;68.4
78438;SHT31;67736;51.978;5.656;2024-02-16T08:05:13;14.3;68.3
78438;SHT31;67736;51.978;5.656;2024-02-16T08:07:46;14.3;68.4
78438;SHT31;67736;51.978;5.656;2024-02-16T08:10:18;14.3;68.3
78438;SHT31;67736;51.978;5.656;2024-02-16T08:12:48;14.4;68.4
78438;SHT31;67736;51.978;5.656;2024-02-16T08:15:18;14.4;68.3
78438;SHT31;67736;51.978;5.656;2024-02-16T08:17:50;14.4;68.3
78438;SHT31;67736;51.978;5.656;2024-02-16T08:20:20;14.4;68.4
78438;SHT31;67736;51.978;5.656;2024-02-16T08:22:50;14.5;68.4
78438;SHT31;67736;51.978;5.656;2024-02-16T08:25:19;14.5;68.3
78438;SHT31;67736;51.978;5.656;2024-02-16T08:27:49;14.6;68.3
78438;SHT31;67736;51.978;5.656;2024-02-16T08:30:19;14.6;68.3
78438;SHT31;67736;51.978;5.656;2024-02-16T08:32:49;14.6;68.2
78438;SHT31;67736;51.978;5.656;2024-02-16T08:35:19;14.6;68.0
78438;SHT31;67736;51.978;5.656;2024-02-16T08:37:48;14.7;68.1
78438;SHT31;67736;51.978;5.656;2024-02-16T08:40:18;14.7;68.1
78438;SHT31;67736;51.978;5.656;2024-02-16T08:42:47;14.7;68.1
78438;SHT31;67736;51.978;5.656;2024-02-16T08:45:18;14.7;68.0
78438;SHT31;67736;51.978;5.656;2024-02-16T08:47:49;14.8;67.9
78438;SHT31;67736;51.978;5.656;2024-02-16T08:50:18;14.8;68.0
78438;SHT31;67736;51.978;5.656;2024-02-16T08:52:48;14.8;68.1
78438;SHT31;67736;51.978;5.656;2024-02-16T08:55:18;14.9;67.9
78438;SHT31;67736;51.978;5.656;2024-02-16T08:57:47;14.9;68.0
78438;SHT31;67736;51.978;5.656;2024-02-16T09:00:20;14.9;67.9
78438;SHT31;67736;51.978;5.656;2024-02-16T09:02:50;15.0;67.8
78438;SHT31;67736;51.978;5.656;2024-02-16T09:05:21;15.0;67.8
78438;SHT31;67736;51.978;5.656;2024-02-16T09:07:50;15.0;67.8
78438;SHT31;67736;51.978;5.656;2024-02-16T09:10:20;15.1;67.7
78438;SHT31;67736;51.978;5.656;2024-02-16T09:12:49;15.1;67.7
78438;SHT31;67736;51.978;5.656;2024-02-16T09:15:19;15.1;67.7
78438;SHT31;67736;51.978;5.656;2024-02-16T09:17:48;15.1;67.7
78438;SHT31;67736;51.978;5.656;2024-02-16T09:20:18;15.2;67.8
78438;SHT31;67736;51.978;5.656;2024-02-16T09:22:49;15.2;67.7
78438;SHT31;67736;51.978;5.656;2024-02-16T09:25:19;15.3;67.7
78438;SHT31;67736;51.978;5.656;2024-02-16T09:27:48;15.3;67.7
78438;SHT31;67736;51.978;5.656;2024-02-16T09:30:18;15.3;67.6
78438;SHT31;67736;51.978;5.656;2024-02-16T09:32:49;15.4;67.6
78438;SHT31;67736;51.978;5.656;2024-02-16T09:35:18;15.4;67.8
78438;SHT31;67736;51.978;5.656;2024-02-16T09:37:48;15.4;68.4
78438;SHT31;67736;51.978;5.656;2024-02-16T09:40:17;15.4;69.1
78438;SHT31;67736;51.978;5.656;2024-02-16T09:42:49;15.4;69.1
78438;SHT31;67736;51.978;5.656;2024-02-16T09:45:19;15.5;69.0
78438;SHT31;67736;51.978;5.656;2024-02-16T09:47:50;15.5;69.2
78438;SHT31;67736;51.978;5.656;2024-02-16T09:50:21;15.5;68.9
78438;SHT31;67736;51.978;5.656;2024-02-16T09:52:51;15.5;69.0
78438;SHT31;67736;51.978;5.656;2024-02-16T09:55:20;15.5;68.9
78438;SHT31;67736;51.978;5.656;2024-02-16T09:58:00;15.5;68.9
78438;SHT31;67736;51.978;5.656;2024-02-16T10:00:32;15.5;68.9
78438;SHT31;67736;51.978;5.656;2024-02-16T10:03:02;15.5;69.0
78438;SHT31;67736;51.978;5.656;2024-02-16T10:05:32;15.5;68.9
78438;SHT31;67736;51.978;5.656;2024-02-16T10:08:12;15.5;69.0
78438;SHT31;67736;51.978;5.656;2024-02-16T10:10:42;15.6;69.0
78438;SHT31;67736;51.978;5.656;2024-02-16T10:13:12;15.6;69.3
78438;SHT31;67736;51.978;5.656;2024-02-16T10:15:42;15.6;69.2
78438;SHT31;67736;51.978;5.656;2024-02-16T10:18:12;15.6;68.9
78438;SHT31;67736;51.978;5.656;2024-02-16T10:20:44;15.7;69.0
78438;SHT31;67736;51.978;5.656;2024-02-16T10:23:14;15.7;68.8
78438;SHT31;67736;51.978;5.656;2024-02-16T10:25:44;15.7;68.7
78438;SHT31;67736;51.978;5.656;2024-02-16T10:28:13;15.8;68.7
78438;SHT31;67736;51.978;5.656;2024-02-16T10:30:44;15.8;68.6
78438;SHT31;67736;51.978;5.656;2024-02-16T10:33:15;15.8;68.7
78438;SHT31;67736;51.978;5.656;2024-02-16T10:35:46;15.8;68.6
78438;SHT31;67736;51.978;5.656;2024-02-16T10:38:16;15.8;68.3
78438;SHT31;67736;51.978;5.656;2024-02-16T10:40:47;15.8;68.3
78438;SHT31;67736;51.978;5.656;2024-02-16T10:43:18;15.8;68.2
78438;SHT31;67736;51.978;5.656;2024-02-16T10:45:50;15.8;68.2
78438;SHT31;67736;51.978;5.656;2024-02-16T10:48:21;15.8;68.3
78438;SHT31;67736;51.978;5.656;2024-02-16T10:50:53;15.8;68.4
78438;SHT31;67736;51.978;5.656;2024-02-16T10:53:26;15.8;68.7
78438;SHT31;67736;51.978;5.656;2024-02-16T10:56:01;15.8;68.8
78438;SHT31;67736;51.978;5.656;2024-02-16T10:58:31;15.8;69.5
78438;SHT31;67736;51.978;5.656;2024-02-16T11:01:10;15.8;69.8
78438;SHT31;67736;51.978;5.656;2024-02-16T11:03:44;15.8;70.0
78438;SHT31;67736;51.978;5.656;2024-02-16T11:06:16;15.8;70.1
78438;SHT31;67736;51.978;5.656;2024-02-16T11:08:49;15.8;70.3
78438;SHT31;67736;51.978;5.656;2024-02-16T11:11:24;15.8;70.3
78438;SHT31;67736;51.978;5.656;2024-02-16T11:13:59;15.7;70.7
78438;SHT31;67736;51.978;5.656;2024-02-16T11:16:30;15.7;70.9
78438;SHT31;67736;51.978;5.656;2024-02-16T11:18:59;15.7;70.9
78438;SHT31;67736;51.978;5.656;2024-02-16T11:21:31;15.7;71.4
78438;SHT31;67736;51.978;5.656;2024-02-16T11:24:06;15.6;71.6
78438;SHT31;67736;51.978;5.656;2024-02-16T11:26:45;15.6;71.7
78438;SHT31;67736;51.978;5.656;2024-02-16T11:29:14;15.6;71.9
78438;SHT31;67736;51.978;5.656;2024-02-16T11:31:46;15.5;71.9
78438;SHT31;67736;51.978;5.656;2024-02-16T11:34:23;15.4;72.3
78438;SHT31;67736;51.978;5.656;2024-02-16T11:36:54;15.4;72.6
78438;SHT31;67736;51.978;5.656;2024-02-16T11:39:25;15.3;73.0
78438;SHT31;67736;51.978;5.656;2024-02-16T11:42:02;15.3;73.4
78438;SHT31;67736;51.978;5.656;2024-02-16T11:44:33;15.2;73.7
78438;SHT31;67736;51.978;5.656;2024-02-16T11:47:03;15.2;73.9
78438;SHT31;67736;51.978;5.656;2024-02-16T11:49:34;15.1;74.0
78438;SHT31;67736;51.978;5.656;2024-02-16T11:52:05;15.1;74.2
78438;SHT31;67736;51.978;5.656;2024-02-16T11:54:38;15.1;74.4
78438;SHT31;67736;51.978;5.656;2024-02-16T11:57:08;15.0;74.5
78438;SHT31;67736;51.978;5.656;2024-02-16T11:59:37;15.0;74.7
78438;SHT31;67736;51.978;5.656;2024-02-16T12:02:07;15.0;74.9
78438;SHT31;67736;51.978;5.656;2024-02-16T12:04:43;15.0;75.0
78438;SHT31;67736;51.978;5.656;2024-02-16T12:07:13;15.0;75.1
78438;SHT31;67736;51.978;5.656;2024-02-16T12:09:43;14.9;75.2
78438;SHT31;67736;51.978;5.656;2024-02-16T12:12:19;15.0;75.3
78438;SHT31;67736;51.978;5.656;2024-02-16T12:14:49;15.0;75.3
78438;SHT31;67736;51.978;5.656;2024-02-16T12:17:18;15.0;75.4
78438;SHT31;67736;51.978;5.656;2024-02-16T12:19:50;15.0;75.4
78438;SHT31;67736;51.978;5.656;2024-02-16T12:22:21;15.0;75.3
78438;SHT31;67736;51.978;5.656;2024-02-16T12:24:51;15.0;75.2
78438;SHT31;67736;51.978;5.656;2024-02-16T12:27:21;15.0;75.2
78438;SHT31;67736;51.978;5.656;2024-02-16T12:29:50;15.0;75.2
78438;SHT31;67736;51.978;5.656;2024-02-16T12:32:20;15.0;75.0
78438;SHT31;67736;51.978;5.656;2024-02-16T12:34:49;14.9;75.1
78438;SHT31;67736;51.978;5.656;2024-02-16T12:37:19;14.9;75.0
78438;SHT31;67736;51.978;5.656;2024-02-16T12:39:49;14.9;75.1
78438;SHT31;67736;51.978;5.656;2024-02-16T12:42:19;14.9;75.2
78438;SHT31;67736;51.978;5.656;2024-02-16T12:44:48;14.9;75.4
78438;SHT31;67736;51.978;5.656;2024-02-16T12:47:18;14.8;75.6
78438;SHT31;67736;51.978;5.656;2024-02-16T12:49:47;14.8;75.7
78438;SHT31;67736;51.978;5.656;2024-02-16T12:52:20;14.8;75.7
78438;SHT31;67736;51.978;5.656;2024-02-16T12:54:53;14.8;75.7
78438;SHT31;67736;51.978;5.656;2024-02-16T12:57:25;14.7;75.8
78438;SHT31;67736;51.978;5.656;2024-02-16T12:59:56;14.7;75.7
78438;SHT31;67736;51.978;5.656;2024-02-16T13:02:26;14.7;75.7
78438;SHT31;67736;51.978;5.656;2024-02-16T13:04:57;14.6;75.8
78438;SHT31;67736;51.978;5.656;2024-02-16T13:07:28;14.6;75.9
78438;SHT31;67736;51.978;5.656;2024-02-16T13:09:58;14.5;75.9
78438;SHT31;67736;51.978;5.656;2024-02-16T13:12:27;14.5;76.3
78438;SHT31;67736;51.978;5.656;2024-02-16T13:14:57;14.5;76.6
78438;SHT31;67736;51.978;5.656;2024-02-16T13:17:29;14.4;76.8
78438;SHT31;67736;51.978;5.656;2024-02-16T13:20:00;14.4;77.4
78438;SHT31;67736;51.978;5.656;2024-02-16T13:22:34;14.4;77.7
78438;SHT31;67736;51.978;5.656;2024-02-16T13:25:05;14.4;78.0
78438;SHT31;67736;51.978;5.656;2024-02-16T13:27:35;14.4;77.8
78438;SHT31;67736;51.978;5.656;2024-02-16T13:30:08;14.4;77.7
78438;SHT31;67736;51.978;5.656;2024-02-16T13:32:37;14.4;77.7
78438;SHT31;67736;51.978;5.656;2024-02-16T13:35:09;14.4;77.8
78438;SHT31;67736;51.978;5.656;2024-02-16T13:37:41;14.4;77.9
78438;SHT31;67736;51.978;5.656;2024-02-16T13:40:13;14.4;77.9
78438;SHT31;67736;51.978;5.656;2024-02-16T13:42:45;14.4;77.9
78438;SHT31;67736;51.978;5.656;2024-02-16T13:45:17;14.4;78.0
78438;SHT31;67736;51.978;5.656;2024-02-16T13:47:46;14.4;77.5
78438;SHT31;67736;51.978;5.656;2024-02-16T13:50:18;14.5;77.3
78438;SHT31;67736;51.978;5.656;2024-02-16T13:52:49;14.5;77.1
78438;SHT31;67736;51.978;5.656;2024-02-16T13:55:19;14.5;77.1
78438;SHT31;67736;51.978;5.656;2024-02-16T13:57:49;14.5;77.1
78438;SHT31;67736;51.978;5.656;2024-02-16T14:00:19;14.6;76.5
78438;SHT31;67736;51.978;5.656;2024-02-16T14:02:48;14.6;76.4
78438;SHT31;67736;51.978;5.656;2024-02-16T14:05:18;14.6;75.4
78438;SHT31;67736;51.978;5.656;2024-02-16T14:07:49;14.6;74.9
78438;SHT31;67736;51.978;5.656;2024-02-16T14:10:19;14.6;75.2
78438;SHT31;67736;51.978;5.656;2024-02-16T14:12:50;14.7;75.4
78438;SHT31;67736;51.978;5.656;2024-02-16T14:15:20;14.7;74.9
78438;SHT31;67736;51.978;5.656;2024-02-16T14:17:50;14.7;74.4
78438;SHT31;67736;51.978;5.656;2024-02-16T14:20:20;14.7;74.4
78438;SHT31;67736;51.978;5.656;2024-02-16T14:22:50;14.7;74.6
78438;SHT31;67736;51.978;5.656;2024-02-16T14:25:19;14.7;74.3
78438;SHT31;67736;51.978;5.656;2024-02-16T14:27:49;14.8;74.4
78438;SHT31;67736;51.978;5.656;2024-02-16T14:30:18;14.8;74.5
78438;SHT31;67736;51.978;5.656;2024-02-16T14:32:50;14.8;74.1
78438;SHT31;67736;51.978;5.656;2024-02-16T14:35:19;14.8;74.1
78438;SHT31;67736;51.978;5.656;2024-02-16T14:37:49;14.8;73.6
78438;SHT31;67736;51.978;5.656;2024-02-16T14:40:21;14.8;73.6
78438;SHT31;67736;51.978;5.656;2024-02-16T14:42:50;14.8;73.5
78438;SHT31;67736;51.978;5.656;2024-02-16T14:45:20;14.8;73.9
78438;SHT31;67736;51.978;5.656;2024-02-16T14:47:50;14.8;74.0
78438;SHT31;67736;51.978;5.656;2024-02-16T14:50:21;14.8;74.0
78438;SHT31;67736;51.978;5.656;2024-02-16T14:52:51;14.9;73.8
78438;SHT31;67736;51.978;5.656;2024-02-16T14:55:21;14.9;73.7
78438;SHT31;67736;51.978;5.656;2024-02-16T14:57:51;14.9;73.2
78438;SHT31;67736;51.978;5.656;2024-02-16T15:00:21;14.9;73.1
78438;SHT31;67736;51.978;5.656;2024-02-16T15:02:51;14.9;73.2
78438;SHT31;67736;51.978;5.656;2024-02-16T15:05:23;14.9;73.2
78438;SHT31;67736;51.978;5.656;2024-02-16T15:07:52;14.9;72.9
78438;SHT31;67736;51.978;5.656;2024-02-16T15:10:22;14.9;72.8
78438;SHT31;67736;51.978;5.656;2024-02-16T15:12:53;14.9;72.5
78438;SHT31;67736;51.978;5.656;2024-02-16T15:15:22;14.9;71.9
78438;SHT31;67736;51.978;5.656;2024-02-16T15:17:52;14.9;71.8
78438;SHT31;67736;51.978;5.656;2024-02-16T15:20:24;14.9;71.6
78438;SHT31;67736;51.978;5.656;2024-02-16T15:22:54;14.9;71.9
78438;SHT31;67736;51.978;5.656;2024-02-16T15:25:24;14.9;71.9
78438;SHT31;67736;51.978;5.656;2024-02-16T15:27:54;14.8;71.9
78438;SHT31;67736;51.978;5.656;2024-02-16T15:30:26;14.8;71.6
78438;SHT31;67736;51.978;5.656;2024-02-16T15:32:55;14.8;71.5
78438;SHT31;67736;51.978;5.656;2024-02-16T15:35:25;14.8;71.8
78438;SHT31;67736;51.978;5.656;2024-02-16T15:37:54;14.8;72.2
78438;SHT31;67736;51.978;5.656;2024-02-16T15:40:24;14.8;72.2
78438;SHT31;67736;51.978;5.656;2024-02-16T15:43:04;14.8;71.9
78438;SHT31;67736;51.978;5.656;2024-02-16T15:45:35;14.8;71.8
78438;SHT31;67736;51.978;5.656;2024-02-16T15:48:09;14.8;71.7
78438;SHT31;67736;51.978;5.656;2024-02-16T15:50:39;14.8;71.8
78438;SHT31;67736;51.978;5.656;2024-02-16T15:53:08;14.8;71.8
78438;SHT31;67736;51.978;5.656;2024-02-16T15:55:38;14.8;71.6
78438;SHT31;67736;51.978;5.656;2024-02-16T15:58:10;14.8;71.9
78438;SHT31;67736;51.978;5.656;2024-02-16T16:00:41;14.8;72.0
78438;SHT31;67736;51.978;5.656;2024-02-16T16:03:13;14.9;72.1
78438;SHT31;67736;51.978;5.656;2024-02-16T16:05:42;14.9;72.1
78438;SHT31;67736;51.978;5.656;2024-02-16T16:08:12;14.9;72.1
78438;SHT31;67736;51.978;5.656;2024-02-16T16:10:41;14.9;72.2
78438;SHT31;67736;51.978;5.656;2024-02-16T16:13:11;14.9;71.9
78438;SHT31;67736;51.978;5.656;2024-02-16T16:15:41;14.9;72.0
78438;SHT31;67736;51.978;5.656;2024-02-16T16:18:11;14.9;72.0
78438;SHT31;67736;51.978;5.656;2024-02-16T16:20:41;15.0;72.0
78438;SHT31;67736;51.978;5.656;2024-02-16T16:23:11;15.0;72.0